sensor_id;sensor_type;location;lat;lon;timestamp;temperature;humidity
17762;DHT22;9005;48.838;10.112;2024-01-30T00:01:01;2.10;78.70
17762;DHT22;9005;48.838;10.112;2024-01-30T00:03:28;2.00;78.80
17762;DHT22;9005;48.838;10.112;2024-01-30T00:05:56;1.90;79.10
17762;DHT22;9005;48.838;10.112;2024-01-30T00:08:22;1.80;79.60
17762;DHT22;9005;48.838;10.112;2024-01-30T00:10:50;1.70;80.10
17762;DHT22;9005;48.838;10.112;2024-01-30T00:13:17;1.60;80.90
17762;DHT22;9005;48.838;10.112;2024-01-30T00:15:45;1.50;81.30
17762;DHT22;9005;48.838;10.112;2024-01-30T00:18:12;1.50;81.70
17762;DHT22;9005;48.838;10.112;2024-01-30T00:20:38;1.50;81.90
17762;DHT22;9005;48.838;10.112;2024-01-30T00:23:05;1.50;82.30
17762;DHT22;9005;48.838;10.112;2024-01-30T00:25:32;1.60;81.90
17762;DHT22;9005;48.838;10.112;2024-01-30T00:28:01;1.90;81.00
17762;DHT22;9005;48.838;10.112;2024-01-30T00:30:28;2.20;79.90
17762;DHT22;9005;48.838;10.112;2024-01-30T00:32:55;2.30;79.00
17762;DHT22;9005;48.838;10.112;2024-01-30T00:35:21;2.40;78.30
17762;DHT22;9005;48.838;10.112;2024-01-30T00:37:48;2.50;77.80
17762;DHT22;9005;48.838;10.112;2024-01-30T00:40:15;2.50;77.40
17762;DHT22;9005;48.838;10.112;2024-01-30T00:42:43;2.50;77.20
17762;DHT22;9005;48.838;10.112;2024-01-30T00:45:13;2.40;77.00
17762;DHT22;9005;48.838;10.112;2024-01-30T00:47:40;2.40;76.90
17762;DHT22;9005;48.838;10.112;2024-01-30T00:50:08;2.30;76.90
17762;DHT22;9005;48.838;10.112;2024-01-30T00:52:34;2.20;77.20
17762;DHT22;9005;48.838;10.112;2024-01-30T00:55:02;2.20;77.50
17762;DHT22;9005;48.838;10.112;2024-01-30T00:57:29;2.10;77.60
17762;DHT22;9005;48.838;10.112;2024-01-30T00:59:55;2.10;77.40
17762;DHT22;9005;48.838;10.112;2024-01-30T01:02:23;2.10;77.60
17762;DHT22;9005;48.838;10.112;2024-01-30T01:04:50;2.00;77.70
17762;DHT22;9005;48.838;10.112;2024-01-30T01:07:17;1.90;78.00
17762;DHT22;9005;48.838;10.112;2024-01-30T01:09:44;1.80;78.30
17762;DHT22;9005;48.838;10.112;2024-01-30T01:12:10;1.80;78.80
17762;DHT22;9005;48.838;10.112;2024-01-30T01:14:37;1.70;79.00
17762;DHT22;9005;48.838;10.112;2024-01-30T01:17:04;1.60;79.10
17762;DHT22;9005;48.838;10.112;2024-01-30T01:19:32;1.60;79.10
17762;DHT22;9005;48.838;10.112;2024-01-30T01:21:58;1.50;79.60
17762;DHT22;9005;48.838;10.112;2024-01-30T01:24:25;1.50;80.20
17762;DHT22;9005;48.838;10.112;2024-01-30T01:26:52;1.50;80.30
17762;DHT22;9005;48.838;10.112;2024-01-30T01:29:18;1.40;80.40
17762;DHT22;9005;48.838;10.112;2024-01-30T01:31:46;1.40;80.60
17762;DHT22;9005;48.838;10.112;2024-01-30T01:34:14;1.40;80.40
17762;DHT22;9005;48.838;10.112;2024-01-30T01:36:42;1.40;80.30
17762;DHT22;9005;48.838;10.112;2024-01-30T01:39:08;1.40;80.60
17762;DHT22;9005;48.838;10.112;2024-01-30T01:41:36;1.40;80.50
17762;DHT22;9005;48.838;10.112;2024-01-30T01:44:02;1.40;80.20
17762;DHT22;9005;48.838;10.112;2024-01-30T01:46:31;1.40;80.30
17762;DHT22;9005;48.838;10.112;2024-01-30T01:49:00;1.40;80.60
17762;DHT22;9005;48.838;10.112;2024-01-30T01:51:30;1.40;80.30
17762;DHT22;9005;48.838;10.112;2024-01-30T01:54:01;1.40;80.20
17762;DHT22;9005;48.838;10.112;2024-01-30T01:56:29;1.50;79.90
17762;DHT22;9005;48.838;10.112;2024-01-30T01:59:00;1.60;79.30
17762;DHT22;9005;48.838;10.112;2024-01-30T02:01:27;1.60;79.00
17762;DHT22;9005;48.838;10.112;2024-01-30T02:03:55;1.60;78.80
17762;DHT22;9005;48.838;10.112;2024-01-30T02:06:23;1.60;78.60
17762;DHT22;9005;48.838;10.112;2024-01-30T02:08:49;1.60;78.70
17762;DHT22;9005;48.838;10.112;2024-01-30T02:11:18;1.60;78.50
17762;DHT22;9005;48.838;10.112;2024-01-30T02:13:45;1.50;78.70
17762;DHT22;9005;48.838;10.112;2024-01-30T02:16:11;1.50;78.70
17762;DHT22;9005;48.838;10.112;2024-01-30T02:18:38;1.50;78.90
17762;DHT22;9005;48.838;10.112;2024-01-30T02:21:10;1.50;79.00
17762;DHT22;9005;48.838;10.112;2024-01-30T02:23:37;1.50;78.90
17762;DHT22;9005;48.838;10.112;2024-01-30T02:26:04;1.50;78.70
17762;DHT22;9005;48.838;10.112;2024-01-30T02:28:31;1.50;78.60
17762;DHT22;9005;48.838;10.112;2024-01-30T02:30:57;1.50;78.60
17762;DHT22;9005;48.838;10.112;2024-01-30T02:33:24;1.50;78.60
17762;DHT22;9005;48.838;10.112;2024-01-30T02:35:51;1.40;78.70
17762;DHT22;9005;48.838;10.112;2024-01-30T02:38:19;1.40;78.90
17762;DHT22;9005;48.838;10.112;2024-01-30T02:40:45;1.30;78.90
17762;DHT22;9005;48.838;10.112;2024-01-30T02:43:12;1.30;79.40
17762;DHT22;9005;48.838;10.112;2024-01-30T02:45:39;1.30;79.50
17762;DHT22;9005;48.838;10.112;2024-01-30T02:48:06;1.30;79.60
17762;DHT22;9005;48.838;10.112;2024-01-30T02:50:33;1.20;79.80
17762;DHT22;9005;48.838;10.112;2024-01-30T02:53:00;1.20;79.80
17762;DHT22;9005;48.838;10.112;2024-01-30T02:55:28;1.20;80.10
17762;DHT22;9005;48.838;10.112;2024-01-30T02:57:54;1.10;80.30
17762;DHT22;9005;48.838;10.112;2024-01-30T03:00:21;1.10;80.50
17762;DHT22;9005;48.838;10.112;2024-01-30T03:02:48;1.00;80.60
17762;DHT22;9005;48.838;10.112;2024-01-30T03:05:15;1.00;80.70
17762;DHT22;9005;48.838;10.112;2024-01-30T03:07:42;1.00;81.00
17762;DHT22;9005;48.838;10.112;2024-01-30T03:10:09;0.90;81.00
17762;DHT22;9005;48.838;10.112;2024-01-30T03:12:37;0.90;81.20
17762;DHT22;9005;48.838;10.112;2024-01-30T03:15:04;0.80;81.50
17762;DHT22;9005;48.838;10.112;2024-01-30T03:17:31;0.70;81.80
17762;DHT22;9005;48.838;10.112;2024-01-30T03:19:57;0.70;82.10
17762;DHT22;9005;48.838;10.112;2024-01-30T03:22:24;0.60;82.50
17762;DHT22;9005;48.838;10.112;2024-01-30T03:24:51;0.50;82.80
17762;DHT22;9005;48.838;10.112;2024-01-30T03:27:18;0.50;83.00
17762;DHT22;9005;48.838;10.112;2024-01-30T03:29:46;0.40;83.40
17762;DHT22;9005;48.838;10.112;2024-01-30T03:32:12;0.40;83.70
17762;DHT22;9005;48.838;10.112;2024-01-30T03:34:39;0.40;83.90
17762;DHT22;9005;48.838;10.112;2024-01-30T03:37:06;0.40;83.90
17762;DHT22;9005;48.838;10.112;2024-01-30T03:39:33;0.40;83.60
17762;DHT22;9005;48.838;10.112;2024-01-30T03:42:00;0.40;83.80
17762;DHT22;9005;48.838;10.112;2024-01-30T03:44:26;0.40;83.80
17762;DHT22;9005;48.838;10.112;2024-01-30T03:46:54;0.40;83.80
17762;DHT22;9005;48.838;10.112;2024-01-30T03:49:21;0.30;84.10
17762;DHT22;9005;48.838;10.112;2024-01-30T03:51:48;0.30;84.10
17762;DHT22;9005;48.838;10.112;2024-01-30T03:54:15;0.30;84.00
17762;DHT22;9005;48.838;10.112;2024-01-30T03:56:41;0.20;84.30
17762;DHT22;9005;48.838;10.112;2024-01-30T03:59:08;0.10;84.60
17762;DHT22;9005;48.838;10.112;2024-01-30T04:01:35;0.10;85.00
17762;DHT22;9005;48.838;10.112;2024-01-30T04:04:03;0.20;85.30
17762;DHT22;9005;48.838;10.112;2024-01-30T04:06:30;0.30;85.10
17762;DHT22;9005;48.838;10.112;2024-01-30T04:08:57;0.30;84.90
17762;DHT22;9005;48.838;10.112;2024-01-30T04:11:23;0.30;84.50
17762;DHT22;9005;48.838;10.112;2024-01-30T04:13:50;0.30;84.40
17762;DHT22;9005;48.838;10.112;2024-01-30T04:16:20;0.30;84.80
17762;DHT22;9005;48.838;10.112;2024-01-30T04:18:48;0.30;84.90
17762;DHT22;9005;48.838;10.112;2024-01-30T04:21:16;0.30;84.50
17762;DHT22;9005;48.838;10.112;2024-01-30T04:23:42;0.30;84.30
17762;DHT22;9005;48.838;10.112;2024-01-30T04:26:09;0.30;84.60
17762;DHT22;9005;48.838;10.112;2024-01-30T04:28:36;0.30;84.30
17762;DHT22;9005;48.838;10.112;2024-01-30T04:31:03;0.30;84.40
17762;DHT22;9005;48.838;10.112;2024-01-30T04:33:30;0.30;84.60
17762;DHT22;9005;48.838;10.112;2024-01-30T04:35:56;0.20;84.50
17762;DHT22;9005;48.838;10.112;2024-01-30T04:38:24;0.20;84.60
17762;DHT22;9005;48.838;10.112;2024-01-30T04:40:51;0.10;84.60
17762;DHT22;9005;48.838;10.112;2024-01-30T04:43:18;0.10;85.10
17762;DHT22;9005;48.838;10.112;2024-01-30T04:45:45;0.10;85.30
17762;DHT22;9005;48.838;10.112;2024-01-30T04:48:12;0.00;85.40
17762;DHT22;9005;48.838;10.112;2024-01-30T04:50:39;0.00;85.60
17762;DHT22;9005;48.838;10.112;2024-01-30T04:53:05;-0.10;85.60
17762;DHT22;9005;48.838;10.112;2024-01-30T04:55:35;-0.10;85.80
17762;DHT22;9005;48.838;10.112;2024-01-30T04:58:02;-0.10;86.50
17762;DHT22;9005;48.838;10.112;2024-01-30T05:00:29;-0.10;86.40
17762;DHT22;9005;48.838;10.112;2024-01-30T05:02:56;-0.10;86.10
17762;DHT22;9005;48.838;10.112;2024-01-30T05:05:22;-0.10;85.90
17762;DHT22;9005;48.838;10.112;2024-01-30T05:07:49;-0.10;85.70
17762;DHT22;9005;48.838;10.112;2024-01-30T05:10:16;-0.10;85.60
17762;DHT22;9005;48.838;10.112;2024-01-30T05:12:44;-0.20;85.80
17762;DHT22;9005;48.838;10.112;2024-01-30T05:15:10;-0.20;85.80
17762;DHT22;9005;48.838;10.112;2024-01-30T05:17:37;-0.30;85.90
17762;DHT22;9005;48.838;10.112;2024-01-30T05:20:05;-0.40;86.00
17762;DHT22;9005;48.838;10.112;2024-01-30T05:22:32;-0.50;86.20
17762;DHT22;9005;48.838;10.112;2024-01-30T05:24:59;-0.50;86.30
17762;DHT22;9005;48.838;10.112;2024-01-30T05:27:26;-0.60;86.40
17762;DHT22;9005;48.838;10.112;2024-01-30T05:29:54;-0.60;86.70
17762;DHT22;9005;48.838;10.112;2024-01-30T05:32:21;-0.60;86.90
17762;DHT22;9005;48.838;10.112;2024-01-30T05:34:47;-0.70;87.10
17762;DHT22;9005;48.838;10.112;2024-01-30T05:37:13;-0.70;87.30
17762;DHT22;9005;48.838;10.112;2024-01-30T05:39:42;-0.70;87.40
17762;DHT22;9005;48.838;10.112;2024-01-30T05:42:09;-0.70;87.40
17762;DHT22;9005;48.838;10.112;2024-01-30T05:44:36;-0.70;87.50
17762;DHT22;9005;48.838;10.112;2024-01-30T05:47:04;-0.70;87.70
17762;DHT22;9005;48.838;10.112;2024-01-30T05:49:31;-0.70;87.80
17762;DHT22;9005;48.838;10.112;2024-01-30T05:51:58;-0.70;87.90
17762;DHT22;9005;48.838;10.112;2024-01-30T05:54:24;-0.70;87.70
17762;DHT22;9005;48.838;10.112;2024-01-30T05:56:51;-0.70;87.60
17762;DHT22;9005;48.838;10.112;2024-01-30T05:59:18;-0.70;87.50
17762;DHT22;9005;48.838;10.112;2024-01-30T06:01:48;-0.70;87.60
17762;DHT22;9005;48.838;10.112;2024-01-30T06:04:16;-0.70;87.40
17762;DHT22;9005;48.838;10.112;2024-01-30T06:06:43;-0.60;87.30
17762;DHT22;9005;48.838;10.112;2024-01-30T06:09:09;-0.50;87.00
17762;DHT22;9005;48.838;10.112;2024-01-30T06:11:38;-0.50;86.80
17762;DHT22;9005;48.838;10.112;2024-01-30T06:14:04;-0.40;86.60
17762;DHT22;9005;48.838;10.112;2024-01-30T06:16:31;-0.40;86.50
17762;DHT22;9005;48.838;10.112;2024-01-30T06:18:58;-0.40;86.30
17762;DHT22;9005;48.838;10.112;2024-01-30T06:21:26;-0.40;86.20
17762;DHT22;9005;48.838;10.112;2024-01-30T06:23:53;-0.40;86.20
17762;DHT22;9005;48.838;10.112;2024-01-30T06:26:20;-0.40;86.30
17762;DHT22;9005;48.838;10.112;2024-01-30T06:28:47;-0.40;86.20
17762;DHT22;9005;48.838;10.112;2024-01-30T06:31:13;-0.40;86.40
17762;DHT22;9005;48.838;10.112;2024-01-30T06:33:40;-0.40;86.20
17762;DHT22;9005;48.838;10.112;2024-01-30T06:36:08;-0.40;86.10
17762;DHT22;9005;48.838;10.112;2024-01-30T06:38:36;-0.30;86.00
17762;DHT22;9005;48.838;10.112;2024-01-30T06:41:02;-0.30;86.00
17762;DHT22;9005;48.838;10.112;2024-01-30T06:43:29;-0.20;85.90
17762;DHT22;9005;48.838;10.112;2024-01-30T06:45:56;-0.20;85.90
17762;DHT22;9005;48.838;10.112;2024-01-30T06:48:23;-0.20;85.80
17762;DHT22;9005;48.838;10.112;2024-01-30T06:50:49;-0.10;85.40
17762;DHT22;9005;48.838;10.112;2024-01-30T06:53:17;0.00;84.90
17762;DHT22;9005;48.838;10.112;2024-01-30T06:55:45;0.10;84.60
17762;DHT22;9005;48.838;10.112;2024-01-30T06:58:12;0.20;84.20
17762;DHT22;9005;48.838;10.112;2024-01-30T07:00:39;0.30;83.80
17762;DHT22;9005;48.838;10.112;2024-01-30T07:03:05;0.40;83.00
17762;DHT22;9005;48.838;10.112;2024-01-30T07:05:32;0.40;82.80
17762;DHT22;9005;48.838;10.112;2024-01-30T07:07:59;0.50;82.50
17762;DHT22;9005;48.838;10.112;2024-01-30T07:10:26;0.50;82.10
17762;DHT22;9005;48.838;10.112;2024-01-30T07:12:54;0.60;81.80
17762;DHT22;9005;48.838;10.112;2024-01-30T07:15:20;0.70;81.60
17762;DHT22;9005;48.838;10.112;2024-01-30T07:17:47;0.70;81.40
17762;DHT22;9005;48.838;10.112;2024-01-30T07:20:14;0.70;81.20
17762;DHT22;9005;48.838;10.112;2024-01-30T07:22:40;0.80;80.90
17762;DHT22;9005;48.838;10.112;2024-01-30T07:25:07;0.80;80.90
17762;DHT22;9005;48.838;10.112;2024-01-30T07:27:34;0.80;80.50
17762;DHT22;9005;48.838;10.112;2024-01-30T07:30:03;0.90;80.20
17762;DHT22;9005;48.838;10.112;2024-01-30T07:32:30;0.90;80.10
17762;DHT22;9005;48.838;10.112;2024-01-30T07:34:57;1.00;79.80
17762;DHT22;9005;48.838;10.112;2024-01-30T07:37:24;1.00;79.50
17762;DHT22;9005;48.838;10.112;2024-01-30T07:39:50;1.10;79.20
17762;DHT22;9005;48.838;10.112;2024-01-30T07:42:17;1.20;79.10
17762;DHT22;9005;48.838;10.112;2024-01-30T07:44:44;1.30;78.90
17762;DHT22;9005;48.838;10.112;2024-01-30T07:47:12;1.40;78.30
17762;DHT22;9005;48.838;10.112;2024-01-30T07:49:38;1.50;78.20
17762;DHT22;9005;48.838;10.112;2024-01-30T07:52:05;1.50;78.20
17762;DHT22;9005;48.838;10.112;2024-01-30T07:54:32;1.60;77.90
17762;DHT22;9005;48.838;10.112;2024-01-30T07:57:00;1.70;77.90
17762;DHT22;9005;48.838;10.112;2024-01-30T07:59:27;1.80;77.60
17762;DHT22;9005;48.838;10.112;2024-01-30T08:01:54;2.00;77.30
17762;DHT22;9005;48.838;10.112;2024-01-30T08:04:22;2.10;76.30
17762;DHT22;9005;48.838;10.112;2024-01-30T08:06:48;2.20;75.60
17762;DHT22;9005;48.838;10.112;2024-01-30T08:09:15;2.40;75.50
17762;DHT22;9005;48.838;10.112;2024-01-30T08:11:42;2.50;75.60
17762;DHT22;9005;48.838;10.112;2024-01-30T08:14:08;2.70;74.80
17762;DHT22;9005;48.838;10.112;2024-01-30T08:16:35;2.90;73.70
17762;DHT22;9005;48.838;10.112;2024-01-30T08:19:02;3.00;73.10
17762;DHT22;9005;48.838;10.112;2024-01-30T08:21:30;3.10;72.90
17762;DHT22;9005;48.838;10.112;2024-01-30T08:24:02;3.20;72.40
17762;DHT22;9005;48.838;10.112;2024-01-30T08:26:29;3.40;71.60
17762;DHT22;9005;48.838;10.112;2024-01-30T08:28:56;3.50;71.20
17762;DHT22;9005;48.838;10.112;2024-01-30T08:31:23;3.60;71.70
17762;DHT22;9005;48.838;10.112;2024-01-30T08:33:50;3.80;70.60
17762;DHT22;9005;48.838;10.112;2024-01-30T08:36:17;3.90;69.90
17762;DHT22;9005;48.838;10.112;2024-01-30T08:38:45;4.00;69.30
17762;DHT22;9005;48.838;10.112;2024-01-30T08:41:11;4.20;69.20
17762;DHT22;9005;48.838;10.112;2024-01-30T08:43:38;4.20;69.20
17762;DHT22;9005;48.838;10.112;2024-01-30T08:46:05;4.30;69.70
17762;DHT22;9005;48.838;10.112;2024-01-30T08:48:31;4.40;68.30
17762;DHT22;9005;48.838;10.112;2024-01-30T08:50:58;4.40;68.40
17762;DHT22;9005;48.838;10.112;2024-01-30T08:53:25;4.50;68.60
17762;DHT22;9005;48.838;10.112;2024-01-30T08:55:53;4.60;67.90
17762;DHT22;9005;48.838;10.112;2024-01-30T08:58:20;4.70;67.90
17762;DHT22;9005;48.838;10.112;2024-01-30T09:00:46;4.70;67.80
17762;DHT22;9005;48.838;10.112;2024-01-30T09:03:13;4.70;68.20
17762;DHT22;9005;48.838;10.112;2024-01-30T09:05:40;4.80;67.90
17762;DHT22;9005;48.838;10.112;2024-01-30T09:08:07;4.80;67.90
17762;DHT22;9005;48.838;10.112;2024-01-30T09:10:33;4.90;67.20
17762;DHT22;9005;48.838;10.112;2024-01-30T09:13:01;5.00;67.70
17762;DHT22;9005;48.838;10.112;2024-01-30T09:15:28;5.10;67.20
17762;DHT22;9005;48.838;10.112;2024-01-30T09:17:55;5.30;66.20
17762;DHT22;9005;48.838;10.112;2024-01-30T09:20:22;5.40;66.20
17762;DHT22;9005;48.838;10.112;2024-01-30T09:22:49;5.60;65.40
17762;DHT22;9005;48.838;10.112;2024-01-30T09:25:15;5.80;65.10
17762;DHT22;9005;48.838;10.112;2024-01-30T09:27:44;5.90;64.80
17762;DHT22;9005;48.838;10.112;2024-01-30T09:30:12;6.10;63.80
17762;DHT22;9005;48.838;10.112;2024-01-30T09:32:39;6.30;64.00
17762;DHT22;9005;48.838;10.112;2024-01-30T09:35:07;6.50;63.70
17762;DHT22;9005;48.838;10.112;2024-01-30T09:37:33;6.80;63.00
17762;DHT22;9005;48.838;10.112;2024-01-30T09:40:00;7.00;62.60
17762;DHT22;9005;48.838;10.112;2024-01-30T09:42:33;7.20;62.30
17762;DHT22;9005;48.838;10.112;2024-01-30T09:45:01;7.60;61.50
17762;DHT22;9005;48.838;10.112;2024-01-30T09:47:31;8.40;60.70
17762;DHT22;9005;48.838;10.112;2024-01-30T09:49:58;9.50;56.80
17762;DHT22;9005;48.838;10.112;2024-01-30T09:52:25;10.70;54.40
17762;DHT22;9005;48.838;10.112;2024-01-30T09:54:53;12.00;50.20
17762;DHT22;9005;48.838;10.112;2024-01-30T09:57:20;13.10;48.80
17762;DHT22;9005;48.838;10.112;2024-01-30T09:59:46;14.30;46.60
17762;DHT22;9005;48.838;10.112;2024-01-30T10:02:13;15.90;43.70
17762;DHT22;9005;48.838;10.112;2024-01-30T10:04:42;17.20;40.20
17762;DHT22;9005;48.838;10.112;2024-01-30T10:07:10;17.90;37.40
17762;DHT22;9005;48.838;10.112;2024-01-30T10:09:38;18.00;38.40
17762;DHT22;9005;48.838;10.112;2024-01-30T10:12:06;17.80;37.30
17762;DHT22;9005;48.838;10.112;2024-01-30T10:14:37;17.40;38.00
17762;DHT22;9005;48.838;10.112;2024-01-30T10:17:04;16.80;38.30
17762;DHT22;9005;48.838;10.112;2024-01-30T10:19:31;16.60;39.00
17762;DHT22;9005;48.838;10.112;2024-01-30T10:22:00;16.70;38.70
17762;DHT22;9005;48.838;10.112;2024-01-30T10:24:26;17.10;40.10
17762;DHT22;9005;48.838;10.112;2024-01-30T10:26:54;17.30;37.20
17762;DHT22;9005;48.838;10.112;2024-01-30T10:29:21;17.40;37.70
17762;DHT22;9005;48.838;10.112;2024-01-30T10:31:58;17.30;39.20
17762;DHT22;9005;48.838;10.112;2024-01-30T10:34:25;17.20;37.70
17762;DHT22;9005;48.838;10.112;2024-01-30T10:36:57;17.20;37.80
17762;DHT22;9005;48.838;10.112;2024-01-30T10:39:29;16.80;37.60
17762;DHT22;9005;48.838;10.112;2024-01-30T10:42:07;16.50;38.70
17762;DHT22;9005;48.838;10.112;2024-01-30T10:44:43;16.10;37.10
17762;DHT22;9005;48.838;10.112;2024-01-30T10:47:12;16.10;37.70
17762;DHT22;9005;48.838;10.112;2024-01-30T10:49:41;16.60;40.10
17762;DHT22;9005;48.838;10.112;2024-01-30T10:52:09;17.60;38.90
17762;DHT22;9005;48.838;10.112;2024-01-30T10:54:39;18.90;37.10
17762;DHT22;9005;48.838;10.112;2024-01-30T10:57:07;19.80;33.50
17762;DHT22;9005;48.838;10.112;2024-01-30T10:59:35;20.50;33.60
17762;DHT22;9005;48.838;10.112;2024-01-30T11:02:03;21.00;33.30
17762;DHT22;9005;48.838;10.112;2024-01-30T11:04:36;21.00;33.20
17762;DHT22;9005;48.838;10.112;2024-01-30T11:07:03;20.50;32.90
17762;DHT22;9005;48.838;10.112;2024-01-30T11:09:47;19.80;35.30
17762;DHT22;9005;48.838;10.112;2024-01-30T11:12:14;19.40;36.50
17762;DHT22;9005;48.838;10.112;2024-01-30T11:14:41;19.40;35.70
17762;DHT22;9005;48.838;10.112;2024-01-30T11:17:09;19.40;33.60
17762;DHT22;9005;48.838;10.112;2024-01-30T11:19:37;18.90;29.10
17762;DHT22;9005;48.838;10.112;2024-01-30T11:22:06;18.00;30.80
17762;DHT22;9005;48.838;10.112;2024-01-30T11:24:40;17.70;32.50
17762;DHT22;9005;48.838;10.112;2024-01-30T11:27:09;17.70;31.70
17762;DHT22;9005;48.838;10.112;2024-01-30T11:29:36;17.40;32.00
17762;DHT22;9005;48.838;10.112;2024-01-30T11:32:03;16.90;31.50
17762;DHT22;9005;48.838;10.112;2024-01-30T11:34:30;16.50;31.60
17762;DHT22;9005;48.838;10.112;2024-01-30T11:37:01;16.20;32.20
17762;DHT22;9005;48.838;10.112;2024-01-30T11:39:29;15.80;31.70
17762;DHT22;9005;48.838;10.112;2024-01-30T11:41:59;15.20;33.50
17762;DHT22;9005;48.838;10.112;2024-01-30T11:44:26;15.20;32.90
17762;DHT22;9005;48.838;10.112;2024-01-30T11:46:52;14.90;33.50
17762;DHT22;9005;48.838;10.112;2024-01-30T11:49:19;14.30;33.80
17762;DHT22;9005;48.838;10.112;2024-01-30T11:51:46;13.90;34.40
17762;DHT22;9005;48.838;10.112;2024-01-30T11:54:14;13.30;34.70
17762;DHT22;9005;48.838;10.112;2024-01-30T11:56:42;12.80;35.60
17762;DHT22;9005;48.838;10.112;2024-01-30T11:59:10;12.10;36.30
17762;DHT22;9005;48.838;10.112;2024-01-30T12:01:37;11.80;37.70
17762;DHT22;9005;48.838;10.112;2024-01-30T12:04:04;11.80;38.50
17762;DHT22;9005;48.838;10.112;2024-01-30T12:06:34;11.80;38.10
17762;DHT22;9005;48.838;10.112;2024-01-30T12:09:02;11.70;38.30
17762;DHT22;9005;48.838;10.112;2024-01-30T12:11:30;11.50;38.40
17762;DHT22;9005;48.838;10.112;2024-01-30T12:13:57;11.30;38.70
17762;DHT22;9005;48.838;10.112;2024-01-30T12:16:25;11.30;39.10
17762;DHT22;9005;48.838;10.112;2024-01-30T12:18:59;11.40;39.40
17762;DHT22;9005;48.838;10.112;2024-01-30T12:21:26;11.30;39.30
17762;DHT22;9005;48.838;10.112;2024-01-30T12:23:53;11.30;39.80
17762;DHT22;9005;48.838;10.112;2024-01-30T12:26:20;11.50;39.90
17762;DHT22;9005;48.838;10.112;2024-01-30T12:28:48;11.50;39.60
17762;DHT22;9005;48.838;10.112;2024-01-30T12:31:15;11.40;39.50
17762;DHT22;9005;48.838;10.112;2024-01-30T12:33:43;11.20;39.50
17762;DHT22;9005;48.838;10.112;2024-01-30T12:36:11;11.20;39.60
17762;DHT22;9005;48.838;10.112;2024-01-30T12:38:38;11.20;39.90
17762;DHT22;9005;48.838;10.112;2024-01-30T12:41:07;11.30;40.00
17762;DHT22;9005;48.838;10.112;2024-01-30T12:43:34;11.40;38.80
17762;DHT22;9005;48.838;10.112;2024-01-30T12:46:01;11.50;39.40
17762;DHT22;9005;48.838;10.112;2024-01-30T12:48:29;11.60;39.30
17762;DHT22;9005;48.838;10.112;2024-01-30T12:50:58;11.80;39.90
17762;DHT22;9005;48.838;10.112;2024-01-30T12:53:24;12.20;39.00
17762;DHT22;9005;48.838;10.112;2024-01-30T12:55:51;12.70;38.10
17762;DHT22;9005;48.838;10.112;2024-01-30T12:58:19;12.90;36.80
17762;DHT22;9005;48.838;10.112;2024-01-30T13:00:46;13.10;37.20
17762;DHT22;9005;48.838;10.112;2024-01-30T13:03:13;13.40;36.00
17762;DHT22;9005;48.838;10.112;2024-01-30T13:05:40;13.50;36.40
17762;DHT22;9005;48.838;10.112;2024-01-30T13:08:08;13.70;36.00
17762;DHT22;9005;48.838;10.112;2024-01-30T13:10:35;13.60;35.50
17762;DHT22;9005;48.838;10.112;2024-01-30T13:13:01;13.50;35.30
17762;DHT22;9005;48.838;10.112;2024-01-30T13:15:28;13.50;36.30
17762;DHT22;9005;48.838;10.112;2024-01-30T13:17:55;13.60;37.50
17762;DHT22;9005;48.838;10.112;2024-01-30T13:20:21;13.70;36.00
17762;DHT22;9005;48.838;10.112;2024-01-30T13:22:48;13.80;36.30
17762;DHT22;9005;48.838;10.112;2024-01-30T13:25:17;13.90;36.20
17762;DHT22;9005;48.838;10.112;2024-01-30T13:27:44;14.20;36.80
17762;DHT22;9005;48.838;10.112;2024-01-30T13:30:11;14.40;37.10
17762;DHT22;9005;48.838;10.112;2024-01-30T13:32:38;14.50;34.50
17762;DHT22;9005;48.838;10.112;2024-01-30T13:35:06;14.70;34.50
17762;DHT22;9005;48.838;10.112;2024-01-30T13:37:33;14.70;34.30
17762;DHT22;9005;48.838;10.112;2024-01-30T13:40:01;14.70;34.10
17762;DHT22;9005;48.838;10.112;2024-01-30T13:42:29;14.70;34.50
17762;DHT22;9005;48.838;10.112;2024-01-30T13:44:55;15.20;34.30
17762;DHT22;9005;48.838;10.112;2024-01-30T13:47:22;15.70;33.80
17762;DHT22;9005;48.838;10.112;2024-01-30T13:49:49;16.00;32.60
17762;DHT22;9005;48.838;10.112;2024-01-30T13:52:15;16.30;32.60
17762;DHT22;9005;48.838;10.112;2024-01-30T13:54:42;16.20;32.40
17762;DHT22;9005;48.838;10.112;2024-01-30T13:57:09;16.00;32.30
17762;DHT22;9005;48.838;10.112;2024-01-30T13:59:37;15.30;33.20
17762;DHT22;9005;48.838;10.112;2024-01-30T14:02:04;14.90;34.30
17762;DHT22;9005;48.838;10.112;2024-01-30T14:04:32;14.80;35.20
17762;DHT22;9005;48.838;10.112;2024-01-30T14:06:59;14.30;34.80
17762;DHT22;9005;48.838;10.112;2024-01-30T14:09:25;14.10;35.10
17762;DHT22;9005;48.838;10.112;2024-01-30T14:11:52;13.90;35.90
17762;DHT22;9005;48.838;10.112;2024-01-30T14:14:19;13.50;36.00
17762;DHT22;9005;48.838;10.112;2024-01-30T14:16:47;13.00;36.80
17762;DHT22;9005;48.838;10.112;2024-01-30T14:19:14;12.60;37.60
17762;DHT22;9005;48.838;10.112;2024-01-30T14:21:40;12.20;38.50
17762;DHT22;9005;48.838;10.112;2024-01-30T14:24:07;12.00;39.50
17762;DHT22;9005;48.838;10.112;2024-01-30T14:26:34;11.90;39.50
17762;DHT22;9005;48.838;10.112;2024-01-30T14:29:01;11.60;40.10
17762;DHT22;9005;48.838;10.112;2024-01-30T14:31:28;11.50;40.10
17762;DHT22;9005;48.838;10.112;2024-01-30T14:33:56;11.40;40.50
17762;DHT22;9005;48.838;10.112;2024-01-30T14:36:23;11.20;40.90
17762;DHT22;9005;48.838;10.112;2024-01-30T14:38:53;11.00;41.20
17762;DHT22;9005;48.838;10.112;2024-01-30T14:41:20;11.00;41.60
17762;DHT22;9005;48.838;10.112;2024-01-30T14:43:47;10.90;41.90
17762;DHT22;9005;48.838;10.112;2024-01-30T14:46:14;10.80;42.20
17762;DHT22;9005;48.838;10.112;2024-01-30T14:48:41;10.80;42.30
17762;DHT22;9005;48.838;10.112;2024-01-30T14:51:10;10.80;42.30
17762;DHT22;9005;48.838;10.112;2024-01-30T14:53:36;10.80;42.50
17762;DHT22;9005;48.838;10.112;2024-01-30T14:56:04;10.70;42.60
17762;DHT22;9005;48.838;10.112;2024-01-30T14:58:31;10.70;42.90
17762;DHT22;9005;48.838;10.112;2024-01-30T15:00:57;10.60;42.90
17762;DHT22;9005;48.838;10.112;2024-01-30T15:03:24;10.70;43.20
17762;DHT22;9005;48.838;10.112;2024-01-30T15:05:51;10.70;43.20
17762;DHT22;9005;48.838;10.112;2024-01-30T15:08:21;10.70;43.20
17762;DHT22;9005;48.838;10.112;2024-01-30T15:10:48;10.70;43.30
17762;DHT22;9005;48.838;10.112;2024-01-30T15:13:16;10.70;43.70
17762;DHT22;9005;48.838;10.112;2024-01-30T15:15:43;10.60;43.50
17762;DHT22;9005;48.838;10.112;2024-01-30T15:18:10;10.60;44.00
17762;DHT22;9005;48.838;10.112;2024-01-30T15:20:37;10.50;44.60
17762;DHT22;9005;48.838;10.112;2024-01-30T15:23:04;10.50;44.20
17762;DHT22;9005;48.838;10.112;2024-01-30T15:25:32;10.40;45.00
17762;DHT22;9005;48.838;10.112;2024-01-30T15:27:58;10.40;45.80
17762;DHT22;9005;48.838;10.112;2024-01-30T15:30:25;10.30;46.60
17762;DHT22;9005;48.838;10.112;2024-01-30T15:32:52;10.20;46.80
17762;DHT22;9005;48.838;10.112;2024-01-30T15:35:19;10.10;48.10
17762;DHT22;9005;48.838;10.112;2024-01-30T15:37:46;10.00;47.50